Impacts TAF Board INFO
FOR SITUATIONAL AWARENESS. NOT TO BE USED FOR FLIGHT PLANNING PURPOSES.
IDs:

KSFO - San Francisco Intl, CA, US

Issued at 0300 UTC 20 Aug 2018
Updated at 0330 UTC 20 Aug 2018
Potential Impact None Slight Moderate High
Time<<20/16Z 20/17Z 20/18Z 20/19Z 20/20Z 20/21Z 20/22Z 20/23Z 21/00Z 21/01Z 21/02Z 21/03Z 21/04Z>>
Type PRVL PRVL PRVL PRVL PRVL PRVL PRVL PRVL PRVL PRVL PRVL PRVL PRVL
VIS >6 >6 >6 >6 >6 >6 >6 >6 >6 >6 >6 >6 >6
CIG 8 -- -- -- -- -- -- -- -- -- -- -- --
Cover OVC FEW FEW FEW FEW FEW FEW FEW FEW FEW FEW FEW FEW
FltCat IFR VFR VFR VFR VFR VFR VFR VFR VFR VFR VFR VFR VFR
WX -- -- -- -- -- -- -- -- -- -- -- -- --
WDir 270 270 270 270 270 300 300 300 300 300 300 300 290
WSpd 5 6 6 6 6 16 16 16 16 16 16 16 10
WGst -- -- -- -- -- -- -- -- -- -- -- -- --

Raw TAF
KSFO 200300Z 2003/2106 29014KT P6SM FEW007
  FM200800 28007KT P6SM FEW007
  FM201200 27005KT P6SM OVC008
  FM201700 27006KT P6SM FEW010
  FM202100 30016KT P6SM FEW012
  FM210400 29010KT P6SM FEW010


METAR Board
Radar Display
Forecast Discussion

FOR SITUATIONAL AWARENESS. NOT TO BE USED FOR FLIGHT PLANNING PURPOSES.